sensor_id;sensor_type;location;lat;lon;timestamp;P1;durP1;ratioP1;P2;durP2;ratioP2
5379;SDS011;2713;42.680;23.310;2022-08-24T00:00:13;11.60;;;8.57;;
5379;SDS011;2713;42.680;23.310;2022-08-24T00:02:42;10.40;;;8.63;;
5379;SDS011;2713;42.680;23.310;2022-08-24T00:05:09;9.70;;;8.50;;
5379;SDS011;2713;42.680;23.310;2022-08-24T00:07:36;10.43;;;8.93;;
5379;SDS011;2713;42.680;23.310;2022-08-24T00:10:03;10.77;;;8.90;;
5379;SDS011;2713;42.680;23.310;2022-08-24T00:12:32;12.73;;;9.67;;
5379;SDS011;2713;42.680;23.310;2022-08-24T00:14:59;13.03;;;8.93;;
5379;SDS011;2713;42.680;23.310;2022-08-24T00:17:28;11.90;;;8.97;;
5379;SDS011;2713;42.680;23.310;2022-08-24T00:19:54;9.97;;;8.93;;
5379;SDS011;2713;42.680;23.310;2022-08-24T00:22:21;10.30;;;9.30;;
5379;SDS011;2713;42.680;23.310;2022-08-24T00:24:48;13.20;;;10.37;;
5379;SDS011;2713;42.680;23.310;2022-08-24T00:27:15;12.33;;;9.23;;
5379;SDS011;2713;42.680;23.310;2022-08-24T00:29:42;12.30;;;9.60;;
5379;SDS011;2713;42.680;23.310;2022-08-24T00:32:09;10.70;;;9.00;;
5379;SDS011;2713;42.680;23.310;2022-08-24T00:34:38;13.70;;;10.70;;
5379;SDS011;2713;42.680;23.310;2022-08-24T00:37:04;13.83;;;10.10;;
5379;SDS011;2713;42.680;23.310;2022-08-24T00:39:31;12.40;;;10.10;;
5379;SDS011;2713;42.680;23.310;2022-08-24T00:41:58;12.20;;;10.03;;
5379;SDS011;2713;42.680;23.310;2022-08-24T00:44:25;16.00;;;10.40;;
5379;SDS011;2713;42.680;23.310;2022-08-24T00:46:53;15.23;;;10.60;;
5379;SDS011;2713;42.680;23.310;2022-08-24T00:49:24;14.70;;;11.73;;
5379;SDS011;2713;42.680;23.310;2022-08-24T00:52:00;13.43;;;11.30;;
5379;SDS011;2713;42.680;23.310;2022-08-24T00:54:31;15.37;;;11.27;;
5379;SDS011;2713;42.680;23.310;2022-08-24T00:57:03;17.00;;;12.20;;
5379;SDS011;2713;42.680;23.310;2022-08-24T00:59:33;17.07;;;11.97;;
5379;SDS011;2713;42.680;23.310;2022-08-24T01:02:04;16.10;;;12.00;;
5379;SDS011;2713;42.680;23.310;2022-08-24T01:04:37;15.00;;;11.77;;
5379;SDS011;2713;42.680;23.310;2022-08-24T01:07:09;14.50;;;12.10;;
5379;SDS011;2713;42.680;23.310;2022-08-24T01:09:37;14.70;;;12.47;;
5379;SDS011;2713;42.680;23.310;2022-08-24T01:12:04;15.53;;;12.77;;
5379;SDS011;2713;42.680;23.310;2022-08-24T01:14:32;18.17;;;12.40;;
5379;SDS011;2713;42.680;23.310;2022-08-24T01:16:59;18.63;;;12.33;;
5379;SDS011;2713;42.680;23.310;2022-08-24T01:19:44;21.13;;;14.90;;
5379;SDS011;2713;42.680;23.310;2022-08-24T01:25:09;20.60;;;13.90;;
5379;SDS011;2713;42.680;23.310;2022-08-24T01:27:36;17.57;;;13.77;;
5379;SDS011;2713;42.680;23.310;2022-08-24T01:30:07;18.63;;;13.50;;
5379;SDS011;2713;42.680;23.310;2022-08-24T01:32:36;22.27;;;14.97;;
5379;SDS011;2713;42.680;23.310;2022-08-24T01:35:03;27.57;;;17.40;;
5379;SDS011;2713;42.680;23.310;2022-08-24T01:37:31;21.87;;;15.97;;
5379;SDS011;2713;42.680;23.310;2022-08-24T01:39:59;23.83;;;16.70;;
5379;SDS011;2713;42.680;23.310;2022-08-24T01:42:32;21.77;;;15.70;;
5379;SDS011;2713;42.680;23.310;2022-08-24T01:44:59;26.70;;;17.83;;
5379;SDS011;2713;42.680;23.310;2022-08-24T01:47:27;20.37;;;15.77;;
5379;SDS011;2713;42.680;23.310;2022-08-24T01:49:55;24.23;;;17.77;;
5379;SDS011;2713;42.680;23.310;2022-08-24T01:52:23;23.93;;;17.30;;
5379;SDS011;2713;42.680;23.310;2022-08-24T01:54:51;21.80;;;17.07;;
5379;SDS011;2713;42.680;23.310;2022-08-24T01:57:19;22.27;;;16.30;;
5379;SDS011;2713;42.680;23.310;2022-08-24T01:59:51;21.87;;;16.13;;
5379;SDS011;2713;42.680;23.310;2022-08-24T02:02:19;26.33;;;18.20;;
5379;SDS011;2713;42.680;23.310;2022-08-24T02:04:50;27.20;;;18.57;;
5379;SDS011;2713;42.680;23.310;2022-08-24T02:07:17;23.80;;;18.20;;
5379;SDS011;2713;42.680;23.310;2022-08-24T02:09:44;23.17;;;16.00;;
5379;SDS011;2713;42.680;23.310;2022-08-24T02:12:13;22.47;;;16.67;;
5379;SDS011;2713;42.680;23.310;2022-08-24T02:14:40;23.97;;;17.27;;
5379;SDS011;2713;42.680;23.310;2022-08-24T02:17:10;25.33;;;17.63;;
5379;SDS011;2713;42.680;23.310;2022-08-24T02:19:37;26.50;;;18.63;;
5379;SDS011;2713;42.680;23.310;2022-08-24T02:22:05;24.60;;;17.30;;
5379;SDS011;2713;42.680;23.310;2022-08-24T02:24:35;25.87;;;18.73;;
5379;SDS011;2713;42.680;23.310;2022-08-24T02:27:01;27.10;;;17.30;;
5379;SDS011;2713;42.680;23.310;2022-08-24T02:29:29;22.90;;;17.80;;
5379;SDS011;2713;42.680;23.310;2022-08-24T02:31:56;21.97;;;16.83;;
5379;SDS011;2713;42.680;23.310;2022-08-24T02:34:24;22.73;;;17.80;;
5379;SDS011;2713;42.680;23.310;2022-08-24T02:36:51;23.57;;;17.90;;
5379;SDS011;2713;42.680;23.310;2022-08-24T02:39:18;24.40;;;18.13;;
5379;SDS011;2713;42.680;23.310;2022-08-24T02:41:47;23.50;;;17.40;;
5379;SDS011;2713;42.680;23.310;2022-08-24T02:44:14;24.53;;;17.37;;
5379;SDS011;2713;42.680;23.310;2022-08-24T02:46:41;26.60;;;17.43;;
5379;SDS011;2713;42.680;23.310;2022-08-24T02:49:09;22.53;;;16.93;;
5379;SDS011;2713;42.680;23.310;2022-08-24T02:51:39;26.27;;;17.80;;
5379;SDS011;2713;42.680;23.310;2022-08-24T02:54:08;33.13;;;19.20;;
5379;SDS011;2713;42.680;23.310;2022-08-24T02:56:36;24.90;;;18.10;;
5379;SDS011;2713;42.680;23.310;2022-08-24T02:59:04;25.10;;;17.73;;
5379;SDS011;2713;42.680;23.310;2022-08-24T03:01:31;26.07;;;18.60;;
5379;SDS011;2713;42.680;23.310;2022-08-24T03:03:58;27.43;;;18.50;;
5379;SDS011;2713;42.680;23.310;2022-08-24T03:06:25;25.90;;;18.53;;
5379;SDS011;2713;42.680;23.310;2022-08-24T03:08:53;21.67;;;17.20;;
5379;SDS011;2713;42.680;23.310;2022-08-24T03:11:20;24.70;;;17.10;;
5379;SDS011;2713;42.680;23.310;2022-08-24T03:13:47;24.63;;;17.70;;
5379;SDS011;2713;42.680;23.310;2022-08-24T03:16:14;28.03;;;18.50;;
5379;SDS011;2713;42.680;23.310;2022-08-24T03:18:42;26.20;;;17.70;;
5379;SDS011;2713;42.680;23.310;2022-08-24T03:21:09;23.97;;;17.30;;
5379;SDS011;2713;42.680;23.310;2022-08-24T03:23:40;23.10;;;17.33;;
5379;SDS011;2713;42.680;23.310;2022-08-24T03:26:11;25.40;;;16.80;;
5379;SDS011;2713;42.680;23.310;2022-08-24T03:28:38;25.67;;;17.97;;
5379;SDS011;2713;42.680;23.310;2022-08-24T03:31:06;27.23;;;18.87;;
5379;SDS011;2713;42.680;23.310;2022-08-24T03:33:33;23.33;;;17.03;;
5379;SDS011;2713;42.680;23.310;2022-08-24T03:36:01;20.20;;;15.10;;
5379;SDS011;2713;42.680;23.310;2022-08-24T03:38:29;22.40;;;17.60;;
5379;SDS011;2713;42.680;23.310;2022-08-24T03:40:56;25.77;;;17.90;;
5379;SDS011;2713;42.680;23.310;2022-08-24T03:43:24;25.83;;;18.33;;
5379;SDS011;2713;42.680;23.310;2022-08-24T03:46:09;21.17;;;16.07;;
5379;SDS011;2713;42.680;23.310;2022-08-24T03:48:38;24.70;;;16.40;;
5379;SDS011;2713;42.680;23.310;2022-08-24T03:51:06;21.07;;;16.60;;
5379;SDS011;2713;42.680;23.310;2022-08-24T03:53:36;23.37;;;16.87;;
5379;SDS011;2713;42.680;23.310;2022-08-24T03:56:03;26.10;;;16.30;;
5379;SDS011;2713;42.680;23.310;2022-08-24T03:58:32;22.20;;;17.73;;
5379;SDS011;2713;42.680;23.310;2022-08-24T04:01:00;22.13;;;16.33;;
5379;SDS011;2713;42.680;23.310;2022-08-24T04:03:27;22.03;;;16.30;;
5379;SDS011;2713;42.680;23.310;2022-08-24T04:05:54;23.63;;;17.03;;
5379;SDS011;2713;42.680;23.310;2022-08-24T04:08:21;21.17;;;16.20;;
5379;SDS011;2713;42.680;23.310;2022-08-24T04:10:48;24.13;;;16.20;;
5379;SDS011;2713;42.680;23.310;2022-08-24T04:13:15;22.80;;;15.93;;
5379;SDS011;2713;42.680;23.310;2022-08-24T04:15:43;21.83;;;16.87;;
5379;SDS011;2713;42.680;23.310;2022-08-24T04:18:10;23.03;;;17.80;;
5379;SDS011;2713;42.680;23.310;2022-08-24T04:20:38;22.80;;;17.67;;
5379;SDS011;2713;42.680;23.310;2022-08-24T04:23:08;20.60;;;15.53;;
5379;SDS011;2713;42.680;23.310;2022-08-24T04:25:38;22.70;;;16.20;;
5379;SDS011;2713;42.680;23.310;2022-08-24T04:28:06;17.90;;;15.10;;
5379;SDS011;2713;42.680;23.310;2022-08-24T04:30:33;20.93;;;15.73;;
5379;SDS011;2713;42.680;23.310;2022-08-24T04:33:08;22.03;;;15.90;;
5379;SDS011;2713;42.680;23.310;2022-08-24T04:35:37;14.77;;;13.17;;
5379;SDS011;2713;42.680;23.310;2022-08-24T04:38:05;19.20;;;15.03;;
5379;SDS011;2713;42.680;23.310;2022-08-24T04:40:32;20.90;;;15.40;;
5379;SDS011;2713;42.680;23.310;2022-08-24T04:43:01;19.47;;;15.07;;
5379;SDS011;2713;42.680;23.310;2022-08-24T04:45:28;19.43;;;14.40;;
5379;SDS011;2713;42.680;23.310;2022-08-24T04:47:55;18.77;;;13.50;;
5379;SDS011;2713;42.680;23.310;2022-08-24T04:50:25;19.80;;;13.93;;
5379;SDS011;2713;42.680;23.310;2022-08-24T04:52:53;19.70;;;13.40;;
5379;SDS011;2713;42.680;23.310;2022-08-24T04:55:20;19.00;;;14.90;;
5379;SDS011;2713;42.680;23.310;2022-08-24T04:57:47;19.83;;;14.73;;
5379;SDS011;2713;42.680;23.310;2022-08-24T05:00:14;24.10;;;14.57;;
5379;SDS011;2713;42.680;23.310;2022-08-24T05:02:42;23.33;;;14.83;;
5379;SDS011;2713;42.680;23.310;2022-08-24T05:05:09;18.37;;;15.40;;
5379;SDS011;2713;42.680;23.310;2022-08-24T05:07:38;18.20;;;15.03;;
5379;SDS011;2713;42.680;23.310;2022-08-24T05:10:05;19.50;;;15.07;;
5379;SDS011;2713;42.680;23.310;2022-08-24T05:12:34;20.70;;;15.73;;
5379;SDS011;2713;42.680;23.310;2022-08-24T05:15:06;21.30;;;16.30;;
5379;SDS011;2713;42.680;23.310;2022-08-24T05:17:38;18.83;;;14.50;;
5379;SDS011;2713;42.680;23.310;2022-08-24T05:20:07;18.53;;;13.90;;
5379;SDS011;2713;42.680;23.310;2022-08-24T05:22:38;18.13;;;14.10;;
5379;SDS011;2713;42.680;23.310;2022-08-24T05:25:05;15.57;;;13.47;;
5379;SDS011;2713;42.680;23.310;2022-08-24T05:27:33;16.00;;;12.70;;
5379;SDS011;2713;42.680;23.310;2022-08-24T05:30:01;16.30;;;11.07;;
5379;SDS011;2713;42.680;23.310;2022-08-24T05:32:28;11.97;;;9.03;;
5379;SDS011;2713;42.680;23.310;2022-08-24T05:34:58;12.40;;;9.40;;
5379;SDS011;2713;42.680;23.310;2022-08-24T05:37:25;13.67;;;10.03;;
5379;SDS011;2713;42.680;23.310;2022-08-24T05:40:11;12.53;;;9.80;;
5379;SDS011;2713;42.680;23.310;2022-08-24T05:42:42;9.47;;;8.37;;
5379;SDS011;2713;42.680;23.310;2022-08-24T05:45:10;9.83;;;8.83;;
5379;SDS011;2713;42.680;23.310;2022-08-24T05:47:38;10.67;;;9.00;;
5379;SDS011;2713;42.680;23.310;2022-08-24T05:50:19;11.17;;;9.03;;
5379;SDS011;2713;42.680;23.310;2022-08-24T05:52:46;12.80;;;8.70;;
5379;SDS011;2713;42.680;23.310;2022-08-24T05:55:15;10.93;;;8.53;;
5379;SDS011;2713;42.680;23.310;2022-08-24T05:57:41;11.20;;;9.00;;
5379;SDS011;2713;42.680;23.310;2022-08-24T06:00:18;13.63;;;9.40;;
5379;SDS011;2713;42.680;23.310;2022-08-24T06:02:48;11.10;;;9.17;;
5379;SDS011;2713;42.680;23.310;2022-08-24T06:05:17;10.13;;;8.13;;
5379;SDS011;2713;42.680;23.310;2022-08-24T06:07:45;9.70;;;8.67;;
5379;SDS011;2713;42.680;23.310;2022-08-24T06:10:12;9.93;;;9.00;;
5379;SDS011;2713;42.680;23.310;2022-08-24T06:12:40;10.20;;;8.70;;
5379;SDS011;2713;42.680;23.310;2022-08-24T06:15:07;9.20;;;8.00;;
5379;SDS011;2713;42.680;23.310;2022-08-24T06:17:36;15.03;;;9.60;;
5379;SDS011;2713;42.680;23.310;2022-08-24T06:20:03;10.60;;;9.50;;
5379;SDS011;2713;42.680;23.310;2022-08-24T06:22:31;11.10;;;9.20;;
5379;SDS011;2713;42.680;23.310;2022-08-24T06:24:58;12.80;;;9.43;;
5379;SDS011;2713;42.680;23.310;2022-08-24T06:27:49;11.07;;;8.20;;
5379;SDS011;2713;42.680;23.310;2022-08-24T06:30:16;9.60;;;8.20;;
5379;SDS011;2713;42.680;23.310;2022-08-24T06:33:01;9.17;;;8.10;;
5379;SDS011;2713;42.680;23.310;2022-08-24T06:35:37;9.83;;;7.60;;
5379;SDS011;2713;42.680;23.310;2022-08-24T06:38:05;8.83;;;8.00;;
5379;SDS011;2713;42.680;23.310;2022-08-24T06:40:32;8.20;;;7.40;;
5379;SDS011;2713;42.680;23.310;2022-08-24T06:43:02;13.47;;;9.53;;
5379;SDS011;2713;42.680;23.310;2022-08-24T06:45:39;11.43;;;8.60;;
5379;SDS011;2713;42.680;23.310;2022-08-24T06:48:06;13.53;;;8.80;;
5379;SDS011;2713;42.680;23.310;2022-08-24T06:50:33;10.67;;;8.50;;
5379;SDS011;2713;42.680;23.310;2022-08-24T06:53:00;10.53;;;8.70;;
5379;SDS011;2713;42.680;23.310;2022-08-24T06:55:29;10.03;;;8.20;;
5379;SDS011;2713;42.680;23.310;2022-08-24T06:57:56;9.10;;;8.10;;
5379;SDS011;2713;42.680;23.310;2022-08-24T07:00:25;9.00;;;7.50;;
5379;SDS011;2713;42.680;23.310;2022-08-24T07:02:52;10.87;;;7.80;;
5379;SDS011;2713;42.680;23.310;2022-08-24T07:05:19;8.43;;;7.63;;
5379;SDS011;2713;42.680;23.310;2022-08-24T07:08:12;9.00;;;7.57;;
5379;SDS011;2713;42.680;23.310;2022-08-24T07:10:39;8.50;;;6.80;;
5379;SDS011;2713;42.680;23.310;2022-08-24T07:13:07;7.67;;;6.93;;
5379;SDS011;2713;42.680;23.310;2022-08-24T07:15:38;7.63;;;6.93;;
5379;SDS011;2713;42.680;23.310;2022-08-24T07:18:10;7.63;;;6.87;;
5379;SDS011;2713;42.680;23.310;2022-08-24T07:20:42;8.27;;;6.23;;
5379;SDS011;2713;42.680;23.310;2022-08-24T07:23:26;8.20;;;6.80;;
5379;SDS011;2713;42.680;23.310;2022-08-24T07:25:53;7.00;;;6.40;;
5379;SDS011;2713;42.680;23.310;2022-08-24T07:28:20;7.93;;;7.10;;
5379;SDS011;2713;42.680;23.310;2022-08-24T07:30:49;7.43;;;6.73;;
5379;SDS011;2713;42.680;23.310;2022-08-24T07:33:16;8.00;;;7.10;;
5379;SDS011;2713;42.680;23.310;2022-08-24T07:35:44;7.60;;;6.77;;
5379;SDS011;2713;42.680;23.310;2022-08-24T07:38:11;11.13;;;8.90;;
5379;SDS011;2713;42.680;23.310;2022-08-24T07:40:38;7.80;;;6.77;;
5379;SDS011;2713;42.680;23.310;2022-08-24T07:43:05;8.67;;;6.80;;
5379;SDS011;2713;42.680;23.310;2022-08-24T07:45:33;9.80;;;6.30;;
5379;SDS011;2713;42.680;23.310;2022-08-24T07:48:01;13.40;;;8.03;;
5379;SDS011;2713;42.680;23.310;2022-08-24T07:50:39;7.73;;;6.20;;
5379;SDS011;2713;42.680;23.310;2022-08-24T07:53:05;7.40;;;5.90;;
5379;SDS011;2713;42.680;23.310;2022-08-24T07:55:32;8.50;;;6.60;;
5379;SDS011;2713;42.680;23.310;2022-08-24T07:57:59;7.80;;;7.10;;
5379;SDS011;2713;42.680;23.310;2022-08-24T08:00:26;7.20;;;6.60;;
5379;SDS011;2713;42.680;23.310;2022-08-24T08:02:58;7.10;;;6.40;;
5379;SDS011;2713;42.680;23.310;2022-08-24T08:05:29;7.40;;;6.70;;
5379;SDS011;2713;42.680;23.310;2022-08-24T08:07:56;9.03;;;6.90;;
5379;SDS011;2713;42.680;23.310;2022-08-24T08:10:24;9.33;;;7.00;;
5379;SDS011;2713;42.680;23.310;2022-08-24T08:12:56;7.10;;;6.50;;
5379;SDS011;2713;42.680;23.310;2022-08-24T08:15:23;9.80;;;7.30;;
5379;SDS011;2713;42.680;23.310;2022-08-24T08:17:59;13.47;;;7.63;;
5379;SDS011;2713;42.680;23.310;2022-08-24T08:20:28;8.80;;;6.47;;
5379;SDS011;2713;42.680;23.310;2022-08-24T08:22:55;8.17;;;7.07;;
5379;SDS011;2713;42.680;23.310;2022-08-24T08:26:19;7.40;;;6.80;;
5379;SDS011;2713;42.680;23.310;2022-08-24T08:28:57;7.33;;;6.63;;
5379;SDS011;2713;42.680;23.310;2022-08-24T08:31:24;8.03;;;7.23;;
5379;SDS011;2713;42.680;23.310;2022-08-24T08:33:51;13.13;;;9.03;;
5379;SDS011;2713;42.680;23.310;2022-08-24T08:36:19;8.33;;;7.50;;
5379;SDS011;2713;42.680;23.310;2022-08-24T08:38:48;8.73;;;7.87;;
5379;SDS011;2713;42.680;23.310;2022-08-24T08:41:30;11.43;;;6.20;;
5379;SDS011;2713;42.680;23.310;2022-08-24T08:44:27;8.60;;;7.70;;
5379;SDS011;2713;42.680;23.310;2022-08-24T08:47:05;7.80;;;7.00;;
5379;SDS011;2713;42.680;23.310;2022-08-24T08:49:54;9.50;;;7.30;;
5379;SDS011;2713;42.680;23.310;2022-08-24T08:55:37;6.93;;;5.70;;
5379;SDS011;2713;42.680;23.310;2022-08-24T08:58:11;16.03;;;12.00;;
5379;SDS011;2713;42.680;23.310;2022-08-24T09:00:52;8.10;;;6.37;;
5379;SDS011;2713;42.680;23.310;2022-08-24T09:06:43;6.53;;;5.93;;
5379;SDS011;2713;42.680;23.310;2022-08-24T09:09:27;7.97;;;7.27;;
5379;SDS011;2713;42.680;23.310;2022-08-24T09:12:11;7.90;;;5.43;;
5379;SDS011;2713;42.680;23.310;2022-08-24T09:17:40;6.90;;;6.30;;
5379;SDS011;2713;42.680;23.310;2022-08-24T09:20:26;6.50;;;5.90;;
5379;SDS011;2713;42.680;23.310;2022-08-24T09:23:12;6.07;;;5.57;;
5379;SDS011;2713;42.680;23.310;2022-08-24T09:25:49;6.50;;;5.90;;
5379;SDS011;2713;42.680;23.310;2022-08-24T09:28:32;8.13;;;7.33;;
5379;SDS011;2713;42.680;23.310;2022-08-24T09:31:13;6.70;;;6.10;;
5379;SDS011;2713;42.680;23.310;2022-08-24T09:34:01;6.93;;;5.97;;
5379;SDS011;2713;42.680;23.310;2022-08-24T09:36:37;7.77;;;5.70;;
5379;SDS011;2713;42.680;23.310;2022-08-24T09:39:17;7.30;;;6.10;;
5379;SDS011;2713;42.680;23.310;2022-08-24T09:42:05;6.57;;;5.97;;
5379;SDS011;2713;42.680;23.310;2022-08-24T09:45:08;6.80;;;6.20;;
5379;SDS011;2713;42.680;23.310;2022-08-24T09:47:58;6.17;;;5.67;;
5379;SDS011;2713;42.680;23.310;2022-08-24T09:57:01;6.60;;;6.00;;
5379;SDS011;2713;42.680;23.310;2022-08-24T09:59:48;7.53;;;6.50;;
5379;SDS011;2713;42.680;23.310;2022-08-24T10:02:35;21.10;;;6.17;;
5379;SDS011;2713;42.680;23.310;2022-08-24T10:05:15;10.80;;;6.47;;
5379;SDS011;2713;42.680;23.310;2022-08-24T10:07:49;8.47;;;6.00;;
5379;SDS011;2713;42.680;23.310;2022-08-24T10:10:26;7.80;;;6.80;;
5379;SDS011;2713;42.680;23.310;2022-08-24T10:13:06;6.93;;;6.23;;
5379;SDS011;2713;42.680;23.310;2022-08-24T10:15:41;6.13;;;5.63;;
5379;SDS011;2713;42.680;23.310;2022-08-24T10:18:28;10.03;;;7.20;;
5379;SDS011;2713;42.680;23.310;2022-08-24T10:21:16;7.43;;;6.73;;
5379;SDS011;2713;42.680;23.310;2022-08-24T10:23:57;6.57;;;5.80;;
5379;SDS011;2713;42.680;23.310;2022-08-24T10:26:39;8.80;;;7.83;;
5379;SDS011;2713;42.680;23.310;2022-08-24T10:29:27;6.87;;;6.27;;
5379;SDS011;2713;42.680;23.310;2022-08-24T10:32:07;6.57;;;5.97;;
5379;SDS011;2713;42.680;23.310;2022-08-24T10:34:48;9.13;;;7.37;;
5379;SDS011;2713;42.680;23.310;2022-08-24T10:40:47;9.13;;;6.77;;
5379;SDS011;2713;42.680;23.310;2022-08-24T10:46:43;6.90;;;6.20;;
5379;SDS011;2713;42.680;23.310;2022-08-24T10:49:20;7.27;;;5.40;;
5379;SDS011;2713;42.680;23.310;2022-08-24T10:55:38;6.70;;;6.07;;
5379;SDS011;2713;42.680;23.310;2022-08-24T10:58:09;11.90;;;6.50;;
5379;SDS011;2713;42.680;23.310;2022-08-24T11:01:10;6.57;;;5.90;;
5379;SDS011;2713;42.680;23.310;2022-08-24T11:03:46;7.43;;;6.67;;
5379;SDS011;2713;42.680;23.310;2022-08-24T11:06:15;9.07;;;6.80;;
5379;SDS011;2713;42.680;23.310;2022-08-24T11:08:51;7.50;;;6.80;;
5379;SDS011;2713;42.680;23.310;2022-08-24T11:11:24;9.40;;;6.73;;
5379;SDS011;2713;42.680;23.310;2022-08-24T11:13:54;7.20;;;6.50;;
5379;SDS011;2713;42.680;23.310;2022-08-24T11:16:25;8.73;;;6.50;;
5379;SDS011;2713;42.680;23.310;2022-08-24T11:18:55;9.90;;;7.70;;
5379;SDS011;2713;42.680;23.310;2022-08-24T11:21:35;7.30;;;6.60;;
5379;SDS011;2713;42.680;23.310;2022-08-24T11:24:23;8.23;;;6.87;;
5379;SDS011;2713;42.680;23.310;2022-08-24T11:26:54;8.10;;;6.60;;
5379;SDS011;2713;42.680;23.310;2022-08-24T11:29:25;7.87;;;7.07;;
5379;SDS011;2713;42.680;23.310;2022-08-24T11:31:56;7.50;;;6.70;;
5379;SDS011;2713;42.680;23.310;2022-08-24T11:34:32;6.53;;;5.90;;
5379;SDS011;2713;42.680;23.310;2022-08-24T11:37:01;7.73;;;6.80;;
5379;SDS011;2713;42.680;23.310;2022-08-24T11:39:31;10.23;;;6.70;;
5379;SDS011;2713;42.680;23.310;2022-08-24T11:42:02;8.10;;;6.80;;
5379;SDS011;2713;42.680;23.310;2022-08-24T11:44:40;8.40;;;6.80;;
5379;SDS011;2713;42.680;23.310;2022-08-24T11:47:16;7.83;;;6.63;;
5379;SDS011;2713;42.680;23.310;2022-08-24T11:50:18;8.03;;;6.90;;
5379;SDS011;2713;42.680;23.310;2022-08-24T11:52:56;7.40;;;6.70;;
5379;SDS011;2713;42.680;23.310;2022-08-24T11:55:35;8.87;;;6.53;;
5379;SDS011;2713;42.680;23.310;2022-08-24T11:58:08;7.40;;;6.30;;
5379;SDS011;2713;42.680;23.310;2022-08-24T12:00:43;7.03;;;6.33;;
5379;SDS011;2713;42.680;23.310;2022-08-24T12:06:12;7.90;;;6.83;;
5379;SDS011;2713;42.680;23.310;2022-08-24T12:08:54;10.27;;;6.93;;
5379;SDS011;2713;42.680;23.310;2022-08-24T12:11:29;10.47;;;7.17;;
5379;SDS011;2713;42.680;23.310;2022-08-24T12:14:04;9.40;;;7.57;;
5379;SDS011;2713;42.680;23.310;2022-08-24T12:16:36;8.37;;;7.47;;
5379;SDS011;2713;42.680;23.310;2022-08-24T12:19:10;8.13;;;7.10;;
5379;SDS011;2713;42.680;23.310;2022-08-24T12:21:42;7.83;;;6.77;;
5379;SDS011;2713;42.680;23.310;2022-08-24T12:24:12;8.00;;;6.60;;
5379;SDS011;2713;42.680;23.310;2022-08-24T12:26:47;8.17;;;6.80;;
5379;SDS011;2713;42.680;23.310;2022-08-24T12:29:19;8.10;;;7.27;;
5379;SDS011;2713;42.680;23.310;2022-08-24T12:31:53;8.80;;;7.50;;
5379;SDS011;2713;42.680;23.310;2022-08-24T12:34:24;10.13;;;8.53;;
5379;SDS011;2713;42.680;23.310;2022-08-24T12:36:58;9.40;;;7.80;;
5379;SDS011;2713;42.680;23.310;2022-08-24T12:39:30;10.30;;;7.87;;
5379;SDS011;2713;42.680;23.310;2022-08-24T12:42:06;9.23;;;8.30;;
5379;SDS011;2713;42.680;23.310;2022-08-24T12:44:41;9.10;;;8.20;;
5379;SDS011;2713;42.680;23.310;2022-08-24T12:47:17;11.40;;;7.80;;
5379;SDS011;2713;42.680;23.310;2022-08-24T12:49:48;8.53;;;7.73;;
5379;SDS011;2713;42.680;23.310;2022-08-24T12:52:31;8.47;;;7.53;;
5379;SDS011;2713;42.680;23.310;2022-08-24T12:55:26;11.80;;;8.80;;
5379;SDS011;2713;42.680;23.310;2022-08-24T12:58:24;8.67;;;7.87;;
5379;SDS011;2713;42.680;23.310;2022-08-24T13:01:09;10.00;;;8.43;;
5379;SDS011;2713;42.680;23.310;2022-08-24T13:03:40;10.27;;;7.83;;
5379;SDS011;2713;42.680;23.310;2022-08-24T13:06:10;9.03;;;7.50;;
5379;SDS011;2713;42.680;23.310;2022-08-24T13:08:44;8.07;;;7.27;;
5379;SDS011;2713;42.680;23.310;2022-08-24T13:11:27;8.57;;;7.77;;
5379;SDS011;2713;42.680;23.310;2022-08-24T13:14:14;10.30;;;8.23;;
5379;SDS011;2713;42.680;23.310;2022-08-24T13:16:47;8.30;;;7.43;;
5379;SDS011;2713;42.680;23.310;2022-08-24T13:19:30;8.97;;;8.07;;
5379;SDS011;2713;42.680;23.310;2022-08-24T13:21:59;9.93;;;7.57;;
5379;SDS011;2713;42.680;23.310;2022-08-24T13:25:45;13.80;;;9.77;;
5379;SDS011;2713;42.680;23.310;2022-08-24T13:28:31;9.30;;;7.87;;
5379;SDS011;2713;42.680;23.310;2022-08-24T13:31:13;12.50;;;8.60;;
5379;SDS011;2713;42.680;23.310;2022-08-24T13:33:46;9.63;;;8.60;;
5379;SDS011;2713;42.680;23.310;2022-08-24T13:42:54;15.10;;;8.53;;
5379;SDS011;2713;42.680;23.310;2022-08-24T13:45:33;9.30;;;8.07;;
5379;SDS011;2713;42.680;23.310;2022-08-24T13:48:08;9.80;;;7.70;;
5379;SDS011;2713;42.680;23.310;2022-08-24T13:50:49;14.27;;;8.83;;
5379;SDS011;2713;42.680;23.310;2022-08-24T13:53:46;10.50;;;7.70;;
5379;SDS011;2713;42.680;23.310;2022-08-24T13:56:28;11.57;;;8.77;;
5379;SDS011;2713;42.680;23.310;2022-08-24T13:59:08;9.27;;;8.27;;
5379;SDS011;2713;42.680;23.310;2022-08-24T14:01:43;10.90;;;8.50;;
5379;SDS011;2713;42.680;23.310;2022-08-24T14:07:16;12.83;;;8.97;;
5379;SDS011;2713;42.680;23.310;2022-08-24T14:09:56;14.60;;;9.50;;
5379;SDS011;2713;42.680;23.310;2022-08-24T14:12:51;9.30;;;8.33;;
5379;SDS011;2713;42.680;23.310;2022-08-24T14:15:30;10.30;;;8.27;;
5379;SDS011;2713;42.680;23.310;2022-08-24T14:18:13;8.70;;;8.00;;
5379;SDS011;2713;42.680;23.310;2022-08-24T14:20:53;12.33;;;8.27;;
5379;SDS011;2713;42.680;23.310;2022-08-24T14:23:37;10.47;;;8.13;;
5379;SDS011;2713;42.680;23.310;2022-08-24T14:29:28;11.67;;;8.27;;
5379;SDS011;2713;42.680;23.310;2022-08-24T14:35:17;10.70;;;7.93;;
5379;SDS011;2713;42.680;23.310;2022-08-24T14:38:02;9.33;;;8.43;;
5379;SDS011;2713;42.680;23.310;2022-08-24T14:40:36;16.20;;;7.90;;
5379;SDS011;2713;42.680;23.310;2022-08-24T14:43:15;15.20;;;8.73;;
5379;SDS011;2713;42.680;23.310;2022-08-24T14:45:51;14.17;;;7.90;;
5379;SDS011;2713;42.680;23.310;2022-08-24T14:48:26;11.50;;;8.23;;
5379;SDS011;2713;42.680;23.310;2022-08-24T14:51:02;10.40;;;8.50;;
5379;SDS011;2713;42.680;23.310;2022-08-24T14:56:30;17.70;;;8.37;;
5379;SDS011;2713;42.680;23.310;2022-08-24T14:59:12;12.93;;;8.60;;
5379;SDS011;2713;42.680;23.310;2022-08-24T15:01:55;13.53;;;8.17;;
5379;SDS011;2713;42.680;23.310;2022-08-24T15:04:39;10.93;;;8.20;;
5379;SDS011;2713;42.680;23.310;2022-08-24T15:07:22;10.80;;;8.20;;
5379;SDS011;2713;42.680;23.310;2022-08-24T15:09:51;16.83;;;7.67;;
5379;SDS011;2713;42.680;23.310;2022-08-24T15:12:36;12.83;;;7.80;;
5379;SDS011;2713;42.680;23.310;2022-08-24T15:15:11;18.17;;;8.00;;
5379;SDS011;2713;42.680;23.310;2022-08-24T15:17:50;12.37;;;8.60;;
5379;SDS011;2713;42.680;23.310;2022-08-24T15:20:30;15.23;;;8.60;;
5379;SDS011;2713;42.680;23.310;2022-08-24T15:23:20;12.43;;;8.50;;
5379;SDS011;2713;42.680;23.310;2022-08-24T15:25:54;12.30;;;8.53;;
5379;SDS011;2713;42.680;23.310;2022-08-24T15:28:25;14.40;;;8.77;;
5379;SDS011;2713;42.680;23.310;2022-08-24T15:30:55;14.60;;;9.73;;
5379;SDS011;2713;42.680;23.310;2022-08-24T15:33:24;17.67;;;9.80;;
5379;SDS011;2713;42.680;23.310;2022-08-24T15:36:05;16.27;;;9.80;;
5379;SDS011;2713;42.680;23.310;2022-08-24T15:38:35;14.80;;;8.03;;
5379;SDS011;2713;42.680;23.310;2022-08-24T15:41:05;12.00;;;8.97;;
5379;SDS011;2713;42.680;23.310;2022-08-24T15:43:34;18.83;;;9.40;;
5379;SDS011;2713;42.680;23.310;2022-08-24T15:46:06;12.60;;;8.60;;
5379;SDS011;2713;42.680;23.310;2022-08-24T15:48:34;12.40;;;8.60;;
5379;SDS011;2713;42.680;23.310;2022-08-24T15:51:01;26.20;;;8.60;;
5379;SDS011;2713;42.680;23.310;2022-08-24T15:53:35;17.33;;;7.30;;
5379;SDS011;2713;42.680;23.310;2022-08-24T15:56:23;18.67;;;9.47;;
5379;SDS011;2713;42.680;23.310;2022-08-24T15:58:54;25.07;;;8.97;;
5379;SDS011;2713;42.680;23.310;2022-08-24T16:01:32;16.70;;;9.80;;
5379;SDS011;2713;42.680;23.310;2022-08-24T16:07:03;18.17;;;9.60;;
5379;SDS011;2713;42.680;23.310;2022-08-24T16:09:33;14.50;;;9.10;;
5379;SDS011;2713;42.680;23.310;2022-08-24T16:12:02;18.63;;;9.17;;
5379;SDS011;2713;42.680;23.310;2022-08-24T16:14:32;20.80;;;8.60;;
5379;SDS011;2713;42.680;23.310;2022-08-24T16:17:16;15.70;;;8.50;;